createdAt,value
2019-02-06T00:00:46.359Z,14.23
2019-02-06T00:05:49.534Z,13.80
2019-02-06T00:10:51.101Z,12.13
2019-02-06T00:15:52.700Z,12.77
2019-02-06T00:20:54.219Z,12.80
2019-02-06T00:25:56.126Z,12.50
2019-02-06T00:30:58.037Z,12.40
2019-02-06T00:35:59.645Z,13.20
2019-02-06T00:41:01.400Z,12.60
2019-02-06T00:46:03.200Z,11.63
2019-02-06T00:51:04.896Z,12.97
2019-02-06T00:56:06.516Z,12.50
2019-02-06T01:01:08.076Z,12.23
2019-02-06T01:06:09.620Z,12.87
2019-02-06T01:11:11.180Z,11.43
2019-02-06T01:16:12.939Z,12.30
2019-02-06T01:21:14.999Z,12.27
2019-02-06T01:26:16.890Z,11.43
2019-02-06T01:31:18.512Z,11.27
2019-02-06T01:36:20.013Z,11.37
2019-02-06T01:41:21.578Z,11.43
2019-02-06T01:46:23.160Z,13.07
2019-02-06T01:51:24.826Z,11.67
2019-02-06T01:56:26.836Z,11.43
2019-02-06T02:01:28.405Z,12.30
2019-02-06T02:06:30.084Z,11.77
2019-02-06T02:11:31.718Z,12.10
2019-02-06T02:16:33.283Z,12.10
2019-02-06T02:21:35.252Z,11.03
2019-02-06T02:26:37.332Z,11.47
2019-02-06T02:31:38.845Z,12.23
2019-02-06T02:36:40.433Z,11.37
2019-02-06T02:41:42.032Z,11.47
2019-02-06T02:46:43.606Z,12.37
2019-02-06T02:51:45.227Z,12.10
2019-02-06T02:56:46.900Z,11.63
2019-02-06T03:01:49.175Z,12.43
2019-02-06T03:06:51.118Z,12.03
2019-02-06T03:11:52.712Z,11.43
2019-02-06T03:16:54.260Z,11.03
2019-02-06T03:21:55.798Z,12.20
2019-02-06T03:26:57.434Z,12.40
2019-02-06T03:31:59.135Z,12.37
2019-02-06T03:37:00.657Z,12.03
2019-02-06T03:42:02.547Z,12.07
2019-02-06T03:47:04.172Z,13.07
2019-02-06T03:52:05.743Z,12.27
2019-02-06T03:57:07.595Z,11.80
2019-02-06T04:02:09.214Z,12.23
2019-02-06T04:07:11.043Z,12.90
2019-02-06T04:12:12.981Z,13.30
2019-02-06T04:17:14.856Z,12.67
2019-02-06T04:22:16.448Z,13.03
2019-02-06T04:27:18.025Z,12.37
2019-02-06T04:32:19.557Z,12.93
2019-02-06T04:37:21.426Z,12.87
2019-02-06T04:42:22.990Z,13.17
2019-02-06T04:47:24.581Z,12.87
2019-02-06T04:52:26.512Z,12.67
2019-02-06T04:57:28.075Z,13.17
2019-02-06T05:02:29.691Z,12.83
2019-02-06T05:07:32.260Z,15.00
2019-02-06T05:12:33.885Z,13.10
2019-02-06T05:17:35.895Z,13.00
2019-02-06T05:22:38.015Z,14.47
2019-02-06T05:27:39.978Z,15.07
2019-02-06T05:32:42.956Z,14.73
2019-02-06T05:37:45.710Z,14.57
2019-02-06T05:42:47.975Z,15.27
2019-02-06T05:47:49.516Z,14.57
2019-02-06T05:52:51.161Z,14.07
2019-02-06T05:57:53.299Z,15.87
2019-02-06T06:02:55.489Z,14.00
2019-02-06T06:07:57.026Z,15.30
2019-02-06T06:12:58.907Z,15.87
2019-02-06T06:18:00.578Z,15.87
2019-02-06T06:23:02.145Z,15.87
2019-02-06T06:28:04.431Z,16.60
2019-02-06T06:33:06.484Z,16.90
2019-02-06T06:38:08.033Z,15.67
2019-02-06T06:43:09.729Z,16.83
2019-02-06T06:48:11.289Z,17.27
2019-02-06T06:53:13.131Z,17.77
2019-02-06T06:58:14.715Z,17.53
2019-02-06T07:03:16.602Z,18.77
2019-02-06T07:08:22.848Z,18.67
2019-02-06T07:13:24.427Z,19.07
2019-02-06T07:18:26.090Z,19.80
2019-02-06T07:23:27.670Z,19.60
2019-02-06T07:28:29.310Z,20.95
2019-02-06T07:33:30.883Z,20.73
2019-02-06T07:38:32.438Z,21.07
2019-02-06T07:43:34.152Z,21.93
2019-02-06T07:48:36.057Z,21.83
2019-02-06T07:53:37.992Z,24.47
2019-02-06T07:58:40.025Z,23.00
2019-02-06T08:03:43.168Z,23.23
2019-02-06T08:08:44.692Z,22.83
2019-02-06T08:13:46.237Z,23.20
2019-02-06T08:18:47.840Z,24.30
2019-02-06T08:23:49.377Z,23.03
2019-02-06T08:28:51.052Z,24.17
2019-02-06T08:33:52.615Z,25.17
2019-02-06T08:38:55.672Z,23.83
2019-02-06T08:43:57.498Z,25.70
2019-02-06T08:48:59.087Z,24.90
2019-02-06T08:54:00.826Z,25.70
2019-02-06T08:59:02.978Z,26.37
2019-02-06T09:04:04.522Z,27.70
2019-02-06T09:09:08.766Z,24.77
2019-02-06T09:14:10.339Z,27.60
2019-02-06T09:19:11.933Z,25.97
2019-02-06T09:24:13.595Z,27.83
2019-02-06T09:29:15.130Z,27.17
2019-02-06T09:34:16.894Z,25.40
2019-02-06T09:39:18.421Z,25.83
2019-02-06T09:44:20.066Z,25.07
2019-02-06T09:49:21.593Z,26.23
2019-02-06T09:54:23.310Z,25.90
2019-02-06T09:59:24.890Z,26.70
2019-02-06T10:04:26.921Z,26.13
2019-02-06T10:09:28.554Z,27.23
2019-02-06T10:14:30.126Z,27.33
2019-02-06T10:19:31.681Z,25.77
2019-02-06T10:24:33.324Z,25.57
2019-02-06T10:29:35.392Z,25.57
2019-02-06T10:34:36.933Z,23.67
2019-02-06T10:39:38.531Z,25.00
2019-02-06T10:44:40.064Z,26.37
2019-02-06T10:49:41.758Z,25.30
2019-02-06T10:54:43.398Z,25.93
2019-02-06T10:59:45.250Z,26.07
2019-02-06T11:04:46.929Z,25.07
2019-02-06T11:09:49.162Z,25.87
2019-02-06T11:14:50.883Z,25.67
2019-02-06T11:19:52.513Z,26.87
2019-02-06T11:24:54.049Z,24.93
2019-02-06T11:29:55.621Z,27.83
2019-02-06T11:34:57.216Z,26.17
2019-02-06T11:39:59.465Z,27.63
2019-02-06T11:45:01.004Z,26.37
2019-02-06T11:50:03.889Z,25.53
2019-02-06T11:55:08.921Z,27.50
2019-02-06T12:00:13.196Z,28.00
2019-02-06T12:05:15.447Z,27.53
2019-02-06T12:10:17.310Z,27.13
2019-02-06T12:15:20.006Z,28.20
2019-02-06T12:20:21.599Z,28.30
2019-02-06T12:25:23.201Z,26.80
2019-02-06T12:30:26.966Z,26.13
2019-02-06T12:35:29.239Z,27.70
2019-02-06T12:40:30.751Z,27.43
2019-02-06T12:45:32.444Z,27.50
2019-02-06T12:50:33.937Z,26.20
2019-02-06T12:55:36.399Z,26.60
2019-02-06T13:00:40.188Z,27.07
2019-02-06T13:05:41.774Z,25.63
2019-02-06T13:10:43.426Z,24.07
2019-02-06T13:15:47.203Z,21.47
2019-02-06T13:20:51.214Z,23.50
2019-02-06T13:25:52.068Z,22.20
2019-02-06T13:30:53.755Z,23.10
2019-02-06T13:35:55.408Z,24.47
2019-02-06T13:40:57.102Z,22.77
2019-02-06T13:45:59.185Z,23.27
2019-02-06T13:51:00.785Z,21.27
2019-02-06T13:56:02.894Z,22.20
2019-02-06T14:01:04.502Z,23.87
2019-02-06T14:06:06.092Z,24.67
2019-02-06T14:11:08.259Z,23.80
2019-02-06T14:16:10.566Z,24.30
2019-02-06T14:21:12.425Z,25.37
2019-02-06T14:26:40.983Z,25.23
2019-02-06T14:32:44.080Z,23.63
2019-02-06T14:38:10.507Z,24.93
2019-02-06T14:44:00.230Z,25.30
2019-02-06T14:50:08.137Z,26.80
2019-02-06T14:55:40.248Z,26.67
2019-02-06T15:01:08.371Z,26.60
2019-02-06T15:06:39.735Z,27.87
2019-02-06T15:12:04.021Z,25.93
2019-02-06T15:17:44.129Z,28.93
2019-02-06T15:23:36.411Z,28.57
2019-02-06T15:29:21.807Z,28.37
2019-02-06T15:34:56.051Z,28.70
2019-02-06T15:40:51.717Z,24.33
2019-02-06T15:46:28.114Z,26.03
2019-02-06T15:52:09.861Z,25.23
2019-02-06T15:57:46.634Z,26.20
2019-02-06T16:03:24.660Z,27.13
2019-02-06T16:08:45.545Z,24.27
2019-02-06T16:14:24.496Z,24.17
2019-02-06T16:20:26.618Z,23.53
2019-02-06T16:26:14.868Z,24.33
2019-02-06T16:31:52.604Z,26.27
2019-02-06T16:37:33.775Z,26.57
2019-02-06T16:43:03.950Z,29.53
2019-02-06T16:48:32.049Z,29.93
2019-02-06T16:54:16.546Z,43.87
2019-02-06T16:59:57.831Z,34.90
2019-02-06T17:05:31.141Z,36.50
2019-02-06T17:11:08.256Z,35.90
2019-02-06T17:16:56.365Z,35.03
2019-02-06T17:22:42.396Z,36.93
2019-02-06T17:28:19.676Z,36.80
2019-02-06T17:33:59.658Z,36.27
2019-02-06T17:39:38.991Z,34.90
2019-02-06T17:45:10.200Z,36.07
2019-02-06T17:50:58.611Z,35.27
2019-02-06T17:56:00.503Z,37.10
2019-02-06T18:01:12.566Z,35.93
2019-02-06T18:06:14.935Z,39.17
2019-02-06T18:11:17.587Z,38.47
2019-02-06T18:16:21.590Z,40.33
2019-02-06T18:21:23.879Z,38.87
2019-02-06T18:26:25.582Z,39.47
2019-02-06T18:31:27.209Z,34.70
2019-02-06T18:36:28.777Z,39.13
2019-02-06T18:41:30.320Z,42.57
2019-02-06T18:46:32.120Z,37.33
2019-02-06T18:51:33.678Z,37.23
2019-02-06T18:56:35.331Z,33.33
2019-02-06T19:01:37.359Z,34.43
2019-02-06T19:06:39.327Z,37.40
2019-02-06T19:11:41.081Z,41.67
2019-02-06T19:16:43.348Z,39.93
2019-02-06T19:21:44.965Z,40.17
2019-02-06T19:26:46.838Z,40.97
2019-02-06T19:31:48.445Z,38.63
2019-02-06T19:36:50.300Z,40.10
2019-02-06T19:41:51.927Z,41.60
2019-02-06T19:46:53.583Z,37.07
2019-02-06T19:51:55.266Z,33.73
2019-02-06T19:56:57.365Z,37.57
2019-02-06T20:01:59.053Z,37.03
2019-02-06T20:07:00.953Z,36.47
2019-02-06T20:12:02.529Z,36.97
2019-02-06T20:17:04.146Z,37.53
2019-02-06T20:22:06.079Z,37.57
2019-02-06T20:27:07.906Z,37.33
2019-02-06T20:32:09.472Z,35.70
2019-02-06T20:37:11.161Z,36.90
2019-02-06T20:42:12.768Z,36.23
2019-02-06T20:47:14.399Z,38.97
2019-02-06T20:52:16.340Z,40.13
2019-02-06T20:57:17.962Z,41.30
2019-02-06T21:02:19.495Z,40.93
2019-02-06T21:07:21.104Z,44.73
2019-02-06T21:12:22.758Z,43.83
2019-02-06T21:17:24.350Z,45.70
2019-02-06T21:22:25.920Z,50.43
2019-02-06T21:27:27.546Z,46.60
2019-02-06T21:32:29.482Z,48.50
2019-02-06T21:37:31.290Z,47.90
2019-02-06T21:42:35.650Z,46.70
2019-02-06T21:47:36.808Z,51.17
2019-02-06T21:52:38.322Z,49.70
2019-02-06T21:57:39.872Z,51.33
2019-02-06T22:02:41.448Z,51.80
2019-02-06T22:07:43.128Z,50.20
2019-02-06T22:12:44.884Z,50.33
2019-02-06T22:17:46.402Z,48.97
2019-02-06T22:22:48.358Z,47.00
2019-02-06T22:27:52.342Z,45.97
2019-02-06T22:32:53.962Z,43.83
2019-02-06T22:37:56.108Z,39.87
2019-02-06T22:42:57.659Z,40.40
2019-02-06T22:47:59.271Z,41.20
2019-02-06T22:53:00.768Z,33.57
2019-02-06T22:58:02.320Z,31.33
2019-02-06T23:03:03.957Z,30.43
2019-02-06T23:08:05.701Z,31.50
2019-02-06T23:13:07.661Z,27.63
2019-02-06T23:18:09.527Z,28.53
2019-02-06T23:23:11.107Z,27.23
2019-02-06T23:28:12.772Z,27.70
2019-02-06T23:33:14.491Z,26.87
2019-02-06T23:38:16.023Z,28.37
2019-02-06T23:43:18.339Z,26.20
2019-02-06T23:48:20.276Z,27.57
2019-02-06T23:53:21.791Z,25.00
2019-02-06T23:58:23.425Z,22.93
